sensor_id;sensor_type;location;lat;lon;timestamp;P1;durP1;ratioP1;P2;durP2;ratioP2
10009;SDS011;5044;48.652;9.250;2024-02-15T11:38:53;2.13;;;0.73;;
10009;SDS011;5044;48.652;9.250;2024-02-15T11:41:27;1.77;;;0.90;;
10009;SDS011;5044;48.652;9.250;2024-02-15T11:49:18;1.70;;;0.60;;
10009;SDS011;5044;48.652;9.250;2024-02-15T12:41:37;0.90;;;0.50;;
10009;SDS011;5044;48.652;9.250;2024-02-15T12:46:43;1.02;;;0.50;;
10009;SDS011;5044;48.652;9.250;2024-02-15T12:49:27;1.98;;;0.68;;
10009;SDS011;5044;48.652;9.250;2024-02-15T13:21:21;2.55;;;0.60;;
10009;SDS011;5044;48.652;9.250;2024-02-15T13:23:56;4.35;;;0.65;;
10009;SDS011;5044;48.652;9.250;2024-02-15T13:36:55;4.20;;;0.70;;
10009;SDS011;5044;48.652;9.250;2024-02-15T13:47:16;1.20;;;0.50;;
10009;SDS011;5044;48.652;9.250;2024-02-15T14:18:36;2.22;;;0.80;;
10009;SDS011;5044;48.652;9.250;2024-02-15T14:34:11;3.85;;;1.02;;
10009;SDS011;5044;48.652;9.250;2024-02-15T14:47:37;3.03;;;0.63;;
10009;SDS011;5044;48.652;9.250;2024-02-15T15:05:44;1.77;;;0.70;;
10009;SDS011;5044;48.652;9.250;2024-02-15T15:08:45;3.55;;;0.90;;
10009;SDS011;5044;48.652;9.250;2024-02-15T15:11:32;2.80;;;0.63;;
10009;SDS011;5044;48.652;9.250;2024-02-15T15:14:18;1.17;;;0.55;;
10009;SDS011;5044;48.652;9.250;2024-02-15T15:16:46;2.13;;;0.50;;
10009;SDS011;5044;48.652;9.250;2024-02-15T15:19:15;2.45;;;0.90;;
10009;SDS011;5044;48.652;9.250;2024-02-15T15:21:46;3.42;;;0.70;;
10009;SDS011;5044;48.652;9.250;2024-02-15T15:24:14;3.00;;;0.65;;
10009;SDS011;5044;48.652;9.250;2024-02-15T15:26:53;1.55;;;0.80;;
10009;SDS011;5044;48.652;9.250;2024-02-15T15:29:31;4.07;;;1.13;;
10009;SDS011;5044;48.652;9.250;2024-02-15T15:32:00;2.30;;;0.43;;
10009;SDS011;5044;48.652;9.250;2024-02-15T15:34:31;1.52;;;0.80;;
10009;SDS011;5044;48.652;9.250;2024-02-15T15:37:10;2.13;;;0.80;;
10009;SDS011;5044;48.652;9.250;2024-02-15T15:39:38;1.75;;;0.90;;
10009;SDS011;5044;48.652;9.250;2024-02-15T15:42:07;3.95;;;0.70;;
10009;SDS011;5044;48.652;9.250;2024-02-15T15:44:40;3.05;;;0.70;;
10009;SDS011;5044;48.652;9.250;2024-02-15T15:49:44;2.50;;;0.52;;
10009;SDS011;5044;48.652;9.250;2024-02-15T16:00:19;3.58;;;0.80;;
10009;SDS011;5044;48.652;9.250;2024-02-15T16:03:03;2.08;;;0.80;;
10009;SDS011;5044;48.652;9.250;2024-02-15T16:05:34;3.30;;;0.90;;
10009;SDS011;5044;48.652;9.250;2024-02-15T16:17:05;1.45;;;0.95;;
10009;SDS011;5044;48.652;9.250;2024-02-15T16:19:38;1.13;;;0.80;;
10009;SDS011;5044;48.652;9.250;2024-02-15T16:22:06;3.55;;;0.80;;
10009;SDS011;5044;48.652;9.250;2024-02-15T16:24:37;1.75;;;1.00;;
10009;SDS011;5044;48.652;9.250;2024-02-15T16:27:06;5.22;;;0.82;;
10009;SDS011;5044;48.652;9.250;2024-02-15T16:29:36;4.55;;;1.38;;
10009;SDS011;5044;48.652;9.250;2024-02-15T16:32:07;1.80;;;1.00;;
10009;SDS011;5044;48.652;9.250;2024-02-15T16:34:38;1.85;;;1.13;;
10009;SDS011;5044;48.652;9.250;2024-02-15T16:40:27;2.88;;;1.95;;
10009;SDS011;5044;48.652;9.250;2024-02-15T16:42:55;4.73;;;1.10;;
10009;SDS011;5044;48.652;9.250;2024-02-15T16:45:34;2.35;;;1.27;;
10009;SDS011;5044;48.652;9.250;2024-02-15T16:51:15;3.97;;;1.45;;
10009;SDS011;5044;48.652;9.250;2024-02-15T16:53:58;2.00;;;1.30;;
10009;SDS011;5044;48.652;9.250;2024-02-15T16:56:43;1.70;;;0.93;;
10009;SDS011;5044;48.652;9.250;2024-02-15T17:07:10;5.00;;;1.70;;
10009;SDS011;5044;48.652;9.250;2024-02-15T17:10:06;3.63;;;1.38;;
10009;SDS011;5044;48.652;9.250;2024-02-15T17:12:45;2.78;;;1.50;;
10009;SDS011;5044;48.652;9.250;2024-02-15T17:15:15;3.35;;;1.70;;
10009;SDS011;5044;48.652;9.250;2024-02-15T17:18:09;3.03;;;1.33;;
10009;SDS011;5044;48.652;9.250;2024-02-15T17:26:23;1.65;;;0.93;;
10009;SDS011;5044;48.652;9.250;2024-02-15T17:28:51;2.08;;;0.90;;
10009;SDS011;5044;48.652;9.250;2024-02-15T17:31:33;1.45;;;0.90;;
10009;SDS011;5044;48.652;9.250;2024-02-15T17:34:15;3.45;;;1.10;;
10009;SDS011;5044;48.652;9.250;2024-02-15T17:36:47;2.03;;;1.10;;
10009;SDS011;5044;48.652;9.250;2024-02-15T17:39:18;4.55;;;1.38;;
10009;SDS011;5044;48.652;9.250;2024-02-15T17:41:45;2.33;;;0.90;;
10009;SDS011;5044;48.652;9.250;2024-02-15T17:44:22;1.13;;;0.82;;
10009;SDS011;5044;48.652;9.250;2024-02-15T17:46:52;3.70;;;1.35;;
10009;SDS011;5044;48.652;9.250;2024-02-15T17:49:22;3.28;;;1.15;;
10009;SDS011;5044;48.652;9.250;2024-02-15T17:51:51;6.30;;;1.20;;
10009;SDS011;5044;48.652;9.250;2024-02-15T17:54:20;4.60;;;1.65;;
10009;SDS011;5044;48.652;9.250;2024-02-15T17:56:48;1.98;;;0.93;;
10009;SDS011;5044;48.652;9.250;2024-02-15T17:59:15;1.80;;;1.00;;
10009;SDS011;5044;48.652;9.250;2024-02-15T18:01:43;3.50;;;1.58;;
10009;SDS011;5044;48.652;9.250;2024-02-15T18:04:23;5.60;;;1.13;;
10009;SDS011;5044;48.652;9.250;2024-02-15T18:06:51;2.97;;;1.30;;
10009;SDS011;5044;48.652;9.250;2024-02-15T18:09:20;2.75;;;1.23;;
10009;SDS011;5044;48.652;9.250;2024-02-15T18:11:57;2.03;;;1.30;;
10009;SDS011;5044;48.652;9.250;2024-02-15T18:14:44;2.50;;;1.30;;
10009;SDS011;5044;48.652;9.250;2024-02-15T19:04:58;3.92;;;1.67;;
10009;SDS011;5044;48.652;9.250;2024-02-15T19:08:07;4.85;;;2.35;;
10009;SDS011;5044;48.652;9.250;2024-02-15T19:14:04;4.60;;;2.97;;
10009;SDS011;5044;48.652;9.250;2024-02-15T19:17:23;4.43;;;2.53;;
10009;SDS011;5044;48.652;9.250;2024-02-15T19:23:42;3.50;;;1.55;;
10009;SDS011;5044;48.652;9.250;2024-02-15T19:27:04;1.95;;;1.45;;
10009;SDS011;5044;48.652;9.250;2024-02-15T19:32:50;2.88;;;1.50;;
10009;SDS011;5044;48.652;9.250;2024-02-15T19:35:32;2.47;;;1.30;;
10009;SDS011;5044;48.652;9.250;2024-02-15T19:38:06;1.60;;;1.10;;
10009;SDS011;5044;48.652;9.250;2024-02-15T19:40:41;4.38;;;1.10;;
10009;SDS011;5044;48.652;9.250;2024-02-15T19:43:18;3.00;;;1.35;;
10009;SDS011;5044;48.652;9.250;2024-02-15T19:46:07;12.43;;;1.88;;
10009;SDS011;5044;48.652;9.250;2024-02-15T19:48:41;7.80;;;1.75;;
10009;SDS011;5044;48.652;9.250;2024-02-15T20:24:05;5.10;;;2.10;;
10009;SDS011;5044;48.652;9.250;2024-02-15T20:26:36;9.23;;;2.65;;
10009;SDS011;5044;48.652;9.250;2024-02-15T20:29:04;3.38;;;2.17;;
10009;SDS011;5044;48.652;9.250;2024-02-15T20:31:34;5.05;;;2.50;;
10009;SDS011;5044;48.652;9.250;2024-02-15T20:34:12;6.32;;;2.47;;
10009;SDS011;5044;48.652;9.250;2024-02-15T20:36:46;5.15;;;2.33;;
10009;SDS011;5044;48.652;9.250;2024-02-15T20:39:22;4.82;;;2.70;;
10009;SDS011;5044;48.652;9.250;2024-02-15T20:41:49;12.77;;;3.13;;
10009;SDS011;5044;48.652;9.250;2024-02-15T20:44:20;4.95;;;2.50;;
10009;SDS011;5044;48.652;9.250;2024-02-15T20:46:51;6.53;;;2.90;;
10009;SDS011;5044;48.652;9.250;2024-02-15T20:49:19;6.45;;;2.70;;
10009;SDS011;5044;48.652;9.250;2024-02-15T20:51:49;5.97;;;3.15;;
10009;SDS011;5044;48.652;9.250;2024-02-15T20:54:19;9.45;;;3.53;;
10009;SDS011;5044;48.652;9.250;2024-02-15T20:56:51;5.32;;;3.20;;
10009;SDS011;5044;48.652;9.250;2024-02-15T20:59:30;6.15;;;2.97;;
10009;SDS011;5044;48.652;9.250;2024-02-15T21:01:58;6.85;;;2.63;;
10009;SDS011;5044;48.652;9.250;2024-02-15T21:04:35;4.40;;;2.15;;
10009;SDS011;5044;48.652;9.250;2024-02-15T21:07:03;7.85;;;2.55;;
10009;SDS011;5044;48.652;9.250;2024-02-15T21:09:58;5.72;;;2.85;;
10009;SDS011;5044;48.652;9.250;2024-02-15T21:12:30;3.58;;;2.35;;
10009;SDS011;5044;48.652;9.250;2024-02-15T21:15:08;3.65;;;2.10;;
10009;SDS011;5044;48.652;9.250;2024-02-15T21:17:42;4.07;;;1.98;;
10009;SDS011;5044;48.652;9.250;2024-02-15T21:20:10;4.38;;;2.33;;
10009;SDS011;5044;48.652;9.250;2024-02-15T21:22:41;6.17;;;2.10;;
10009;SDS011;5044;48.652;9.250;2024-02-15T21:25:21;2.90;;;1.70;;
10009;SDS011;5044;48.652;9.250;2024-02-15T21:27:57;5.53;;;2.47;;
10009;SDS011;5044;48.652;9.250;2024-02-15T21:30:26;6.00;;;2.35;;
10009;SDS011;5044;48.652;9.250;2024-02-15T21:32:54;2.60;;;1.55;;
10009;SDS011;5044;48.652;9.250;2024-02-15T21:35:23;3.20;;;1.75;;
10009;SDS011;5044;48.652;9.250;2024-02-15T21:37:52;2.78;;;1.80;;
10009;SDS011;5044;48.652;9.250;2024-02-15T21:40:29;2.72;;;1.65;;
10009;SDS011;5044;48.652;9.250;2024-02-15T21:42:58;4.45;;;2.17;;
10009;SDS011;5044;48.652;9.250;2024-02-15T21:45:34;5.55;;;2.05;;
10009;SDS011;5044;48.652;9.250;2024-02-15T21:48:21;5.88;;;2.00;;
10009;SDS011;5044;48.652;9.250;2024-02-15T21:50:52;3.60;;;1.60;;
10009;SDS011;5044;48.652;9.250;2024-02-15T21:53:31;3.17;;;1.55;;
10009;SDS011;5044;48.652;9.250;2024-02-15T21:59:15;4.07;;;1.80;;
10009;SDS011;5044;48.652;9.250;2024-02-15T22:02:05;3.90;;;1.80;;
10009;SDS011;5044;48.652;9.250;2024-02-15T22:04:36;2.60;;;1.80;;
10009;SDS011;5044;48.652;9.250;2024-02-15T22:07:04;2.38;;;1.80;;
10009;SDS011;5044;48.652;9.250;2024-02-15T22:09:37;2.80;;;1.92;;
10009;SDS011;5044;48.652;9.250;2024-02-15T23:05:08;3.30;;;1.40;;
10009;SDS011;5044;48.652;9.250;2024-02-15T23:08:04;3.50;;;1.67;;
10009;SDS011;5044;48.652;9.250;2024-02-15T23:10:44;7.15;;;2.17;;
10009;SDS011;5044;48.652;9.250;2024-02-15T23:13:31;3.08;;;1.80;;
10009;SDS011;5044;48.652;9.250;2024-02-15T23:16:53;2.95;;;1.80;;
10009;SDS011;5044;48.652;9.250;2024-02-15T23:23:04;3.10;;;1.95;;
10009;SDS011;5044;48.652;9.250;2024-02-15T23:25:56;3.00;;;2.00;;
10009;SDS011;5044;48.652;9.250;2024-02-15T23:28:49;3.70;;;2.05;;
10009;SDS011;5044;48.652;9.250;2024-02-15T23:31:23;4.93;;;2.42;;
10009;SDS011;5044;48.652;9.250;2024-02-15T23:33:57;3.63;;;2.67;;
10009;SDS011;5044;48.652;9.250;2024-02-15T23:36:32;4.30;;;2.08;;
10009;SDS011;5044;48.652;9.250;2024-02-15T23:39:17;4.80;;;2.40;;
10009;SDS011;5044;48.652;9.250;2024-02-15T23:42:12;4.35;;;2.40;;
10009;SDS011;5044;48.652;9.250;2024-02-15T23:44:43;8.00;;;2.38;;
10009;SDS011;5044;48.652;9.250;2024-02-15T23:47:18;4.78;;;2.08;;
10009;SDS011;5044;48.652;9.250;2024-02-15T23:49:54;2.05;;;1.50;;
10009;SDS011;5044;48.652;9.250;2024-02-15T23:52:25;2.72;;;1.50;;
10009;SDS011;5044;48.652;9.250;2024-02-15T23:54:59;5.82;;;1.70;;
10009;SDS011;5044;48.652;9.250;2024-02-15T23:57:29;4.78;;;1.40;;
10009;SDS011;5044;48.652;9.250;2024-02-15T23:59:57;3.35;;;1.95;;
